Date,TemperatureHighF,TemperatureAvgF,TemperatureLowF,DewpointHighF,DewpointAvgF,DewpointLowF,HumidityHigh,HumidityAvg,HumidityLow,PressureMaxIn,PressureMinIn,WindSpeedMaxMPH,WindSpeedAvgMPH,GustSpeedMaxMPH,PrecipitationSumIn
2013-4-1,50,42,34,42,38,18,100,85,51,29.85,29.50,19,4,19,0.58
2013-4-2,38,33,27,19,15,10,68,47,33,29.85,29.70,20,4,20,0.00
2013-4-3,43,35,30,20,15,9,66,44,26,30.07,29.82,26,5,26,0.00
2013-4-4,47,39,31,36,21,10,80,52,26,30.23,29.97,18,4,21,0.00
2013-4-5,49,42,37,38,32,23,80,68,39,29.97,29.66,26,4,26,0.00
2013-4-6,41,33,26,24,10,3,61,39,23,30.36,29.83,25,5,25,0.00
2013-4-7,45,38,26,39,28,11,86,69,51,30.36,29.97,21,4,23,0.00
2013-4-8,60,48,40,40,36,31,92,68,34,30.14,29.91,18,3,19,0.00
2013-4-9,48,42,38,44,40,34,94,90,81,30.13,29.90,10,1,11,0.28
2013-4-10,50,43,40,46,41,38,95,92,83,30.02,29.90,12,1,12,0.34
2013-4-11,43,42,40,42,40,33,99,93,71,30.00,29.87,18,1,18,0.05
2013-4-12,39,35,33,33,25,16,94,69,43,30.27,29.91,4,2,14,0.35
2013-4-13,47,38,32,39,34,31,94,87,69,29.93,29.78,4,2,18,0.12
2013-4-14,50,43,38,41,38,32,94,83,58,30.18,29.91,5,1,18,0.05
2013-4-15,51,40,31,39,35,29,92,82,58,30.44,30.20,6,2,17,0.00
2013-4-16,49,47,41,44,41,38,93,82,75,30.43,29.97,25,7,25,0.00
2013-4-17,61,52,41,45,33,26,93,53,29,30.35,29.97,20,4,20,0.00
2013-4-18,47,42,32,40,31,24,82,67,42,30.49,30.18,20,3,20,0.00
2013-4-19,58,50,44,54,48,40,100,91,80,30.19,29.64,26,6,26,0.00
2013-4-20,56,25,-90,52,14,-90,96,70,40,30.17,29.59,21,3,23,0.31
2013-4-21,52,42,32,27,22,17,69,46,27,30.72,30.16,17,3,17,0.00
2013-4-22,49,39,30,35,26,18,92,63,29,30.83,30.67,15,2,15,0.00
2013-4-23,44,38,30,40,34,27,94,88,76,30.67,30.20,12,2,12,0.02
2013-4-24,63,50,41,51,46,39,100,85,65,30.20,29.78,17,4,20,0.05
2013-4-25,64,52,41,48,39,30,94,66,30,30.30,29.80,19,3,22,0.06
2013-4-26,56,45,34,38,33,29,92,65,39,30.46,30.30,17,2,17,0.00
2013-4-27,56,45,35,42,38,34,93,79,50,30.44,30.33,16,2,16,0.00
2013-4-28,57,47,35,45,38,34,94,74,44,30.36,30.27,15,2,15,0.00
2013-4-29,57,48,38,46,41,35,93,80,61,30.30,30.24,13,2,14,0.00
2013-4-30,61,49,38,48,40,33,94,74,37,30.40,30.26,13,1,13,0.00